Time;durP1;ratioP1;P1;durP2;ratioP2;P2;SDS_P1;SDS_P2;PMS_P1;PMS_P2;Temp;Humidity;BMP_temperature;BMP_pressure;BME280_temperature;BME280_humidity;BME280_pressure;Samples;Min_cycle;Max_cycle;Signal;HPM_P1;HPM_P2
2021/07/27 00:00:52;;;;;;;3.75;2.97;;;;;;;;;;5032879;28;20668;-47
2021/07/27 00:03:18;;;;;;;3.33;3.03;;;;;;;;;;5035618;28;20175;-46
2021/07/27 00:05:44;;;;;;;4.90;4.10;;;;;;;;;;5035324;28;20623;-47
2021/07/27 00:08:10;;;;;;;3.55;2.75;;;;;;;;;;5035274;28;20258;-47
2021/07/27 00:10:37;;;;;;;5.32;3.25;;;;;;;;;;5021836;28;20177;-47
2021/07/27 00:13:04;;;;;;;3.55;3.25;;;;;;;;;;5030055;28;20259;-47
2021/07/27 00:15:30;;;;;;;4.65;3.30;;;;;;;;;;5035654;28;20180;-47
2021/07/27 00:17:56;;;;;;;3.75;3.45;;;;;;;;;;5035147;28;20491;-47
2021/07/27 00:20:22;;;;;;;4.57;3.03;;;;;;;;;;5034835;28;20258;-47
2021/07/27 00:22:48;;;;;;;4.15;3.40;;;;;;;;;;5030611;28;20217;-47
2021/07/27 00:25:15;;;;;;;5.35;3.15;;;;;;;;;;5034922;28;20191;-47
2021/07/27 00:27:41;;;;;;;4.68;3.20;;;;;;;;;;5033810;28;20187;-47
2021/07/27 00:30:09;;;;;;;4.75;2.85;;;;;;;;;;5035117;28;20229;-47
2021/07/27 00:32:39;;;;;;;4.78;3.28;;;;;;;;;;5034956;28;20291;-47
2021/07/27 00:35:05;;;;;;;3.83;3.20;;;;;;;;;;5035413;28;20180;-47
2021/07/27 00:37:33;;;;;;;3.33;2.92;;;;;;;;;;5032309;28;20191;-47
2021/07/27 00:39:59;;;;;;;4.05;3.00;;;;;;;;;;5036000;28;20619;-47
2021/07/27 00:42:26;;;;;;;3.00;2.75;;;;;;;;;;5015369;28;20201;-47
2021/07/27 00:44:52;;;;;;;3.90;3.50;;;;;;;;;;5028747;28;20643;-47
2021/07/27 00:47:18;;;;;;;5.15;3.25;;;;;;;;;;5019670;28;20176;-47
2021/07/27 00:49:44;;;;;;;4.22;3.20;;;;;;;;;;5031309;28;20563;-46
2021/07/27 00:52:10;;;;;;;3.58;3.28;;;;;;;;;;5034577;28;20188;-47
2021/07/27 00:54:37;;;;;;;4.68;3.20;;;;;;;;;;5034721;28;20460;-47
2021/07/27 00:57:03;;;;;;;4.07;3.20;;;;;;;;;;5034351;28;20203;-47
2021/07/27 00:59:29;;;;;;;3.47;2.92;;;;;;;;;;5034806;28;20184;-47
2021/07/27 01:01:56;;;;;;;4.43;3.63;;;;;;;;;;5024933;28;20274;-47
2021/07/27 01:04:22;;;;;;;4.50;2.95;;;;;;;;;;5032445;28;20195;-47
2021/07/27 01:06:48;;;;;;;4.88;3.60;;;;;;;;;;5028567;28;20179;-47
2021/07/27 01:09:14;;;;;;;9.48;3.30;;;;;;;;;;5034262;28;20211;-47
2021/07/27 01:11:44;;;;;;;6.35;3.42;;;;;;;;;;5031542;28;20215;-48
2021/07/27 01:14:10;;;;;;;4.78;3.40;;;;;;;;;;5028154;28;20200;-47
2021/07/27 01:16:37;;;;;;;4.28;3.65;;;;;;;;;;5034191;28;20517;-47
2021/07/27 01:41:00;;;;;;;5.35;3.13;;;;;;;;;;5029974;28;20577;-47
2021/07/27 01:43:30;;;;;;;3.60;3.30;;;;;;;;;;5039958;28;20184;-47
2021/07/27 01:45:56;;;;;;;3.63;3.33;;;;;;;;;;5026846;28;20199;-47
2021/07/27 01:48:30;;;;;;;3.35;3.00;;;;;;;;;;5033506;28;20176;-47
2021/07/27 01:50:58;;;;;;;4.22;3.08;;;;;;;;;;5033772;28;20226;-47
2021/07/27 01:53:34;;;;;;;3.30;3.00;;;;;;;;;;5027731;28;20184;-47
2021/07/27 01:56:00;;;;;;;4.97;3.22;;;;;;;;;;5016224;28;20223;-47
2021/07/27 01:58:26;;;;;;;3.90;3.20;;;;;;;;;;5028737;28;20475;-47
2021/07/27 02:00:52;;;;;;;6.47;3.53;;;;;;;;;;5037466;28;20257;-47
2021/07/27 02:03:18;;;;;;;3.30;3.00;;;;;;;;;;5037697;28;20233;-47
2021/07/27 02:05:45;;;;;;;5.75;3.05;;;;;;;;;;5037743;28;20183;-47
2021/07/27 02:08:12;;;;;;;3.22;2.85;;;;;;;;;;5036519;28;20266;-47
2021/07/27 02:10:39;;;;;;;3.33;3.03;;;;;;;;;;5037409;28;20191;-47
2021/07/27 02:13:24;;;;;;;3.78;2.90;;;;;;;;;;5037936;28;20482;-47
2021/07/27 02:15:50;;;;;;;3.55;3.25;;;;;;;;;;5035319;28;20218;-47
2021/07/27 02:18:15;;;;;;;3.22;2.92;;;;;;;;;;5037368;28;20494;-47
2021/07/27 02:20:45;;;;;;;3.30;3.00;;;;;;;;;;5037070;28;20188;-47
2021/07/27 02:23:11;;;;;;;3.95;2.83;;;;;;;;;;5036838;28;20238;-47
2021/07/27 02:25:37;;;;;;;4.55;2.97;;;;;;;;;;5037706;28;20566;-47
2021/07/27 02:28:03;;;;;;;4.50;3.28;;;;;;;;;;5027089;28;20184;-47
2021/07/27 02:30:33;;;;;;;3.63;2.92;;;;;;;;;;5027757;28;20180;-47
2021/07/27 02:32:59;;;;;;;3.33;2.72;;;;;;;;;;5036977;28;20191;-47
2021/07/27 02:35:33;;;;;;;3.92;2.70;;;;;;;;;;5037060;28;20180;-47
2021/07/27 02:37:59;;;;;;;4.60;2.70;;;;;;;;;;5033523;28;20168;-47
2021/07/27 02:40:26;;;;;;;2.83;2.45;;;;;;;;;;5030595;28;20188;-47
2021/07/27 02:42:52;;;;;;;3.35;3.00;;;;;;;;;;5045502;28;20190;-47
2021/07/27 02:45:21;;;;;;;3.35;3.05;;;;;;;;;;5057471;28;20171;-46
2021/07/27 02:47:47;;;;;;;3.25;2.95;;;;;;;;;;5041516;28;20207;-46
2021/07/27 02:50:13;;;;;;;4.80;3.25;;;;;;;;;;5037019;28;20176;-46
2021/07/27 02:52:39;;;;;;;3.05;2.83;;;;;;;;;;5034966;28;20539;-47
2021/07/27 02:55:06;;;;;;;3.90;2.75;;;;;;;;;;5034811;28;20359;-46
2021/07/27 02:57:32;;;;;;;3.10;2.80;;;;;;;;;;5027128;28;20476;-47
2021/07/27 03:00:00;;;;;;;2.92;2.67;;;;;;;;;;5036834;28;20180;-46
2021/07/27 03:02:29;;;;;;;3.50;3.00;;;;;;;;;;5036660;28;20203;-47
2021/07/27 03:04:54;;;;;;;2.83;2.60;;;;;;;;;;5036699;28;20520;-46
2021/07/27 03:07:21;;;;;;;3.97;2.58;;;;;;;;;;5026826;28;20186;-46
2021/07/27 03:12:45;;;;;;;3.97;3.15;;;;;;;;;;5035643;28;20258;-47
2021/07/27 03:15:12;;;;;;;3.08;2.88;;;;;;;;;;5036510;28;20491;-47
2021/07/27 03:17:38;;;;;;;4.32;3.33;;;;;;;;;;5036164;28;20203;-47
2021/07/27 03:20:04;;;;;;;3.47;2.40;;;;;;;;;;5034720;28;20227;-47
2021/07/27 03:22:31;;;;;;;3.65;2.97;;;;;;;;;;5036238;28;20222;-47
2021/07/27 03:24:57;;;;;;;5.22;3.08;;;;;;;;;;5029966;28;20172;-47
2021/07/27 03:27:23;;;;;;;2.97;2.60;;;;;;;;;;5035233;28;20168;-46
2021/07/27 03:29:49;;;;;;;3.30;2.95;;;;;;;;;;5026110;28;20461;-46
2021/07/27 03:32:15;;;;;;;3.63;3.03;;;;;;;;;;5030468;28;20254;-47
2021/07/27 03:34:44;;;;;;;3.20;2.90;;;;;;;;;;5035625;28;20171;-47
2021/07/27 03:37:13;;;;;;;3.65;2.90;;;;;;;;;;5027169;28;20191;-47
2021/07/27 03:39:39;;;;;;;3.85;2.80;;;;;;;;;;5035891;28;20505;-47
2021/07/27 03:42:06;;;;;;;5.78;3.03;;;;;;;;;;5022089;28;20211;-47
2021/07/27 03:44:32;;;;;;;3.00;2.70;;;;;;;;;;5044014;28;20187;-47
2021/07/27 03:47:00;;;;;;;3.28;2.58;;;;;;;;;;5035784;28;20213;-46
2021/07/27 03:49:29;;;;;;;3.08;2.75;;;;;;;;;;5047248;28;20279;-46
2021/07/27 03:51:55;;;;;;;5.13;2.47;;;;;;;;;;5034230;28;20559;-47
2021/07/27 03:54:21;;;;;;;2.92;2.70;;;;;;;;;;5036126;28;20179;-47
2021/07/27 03:56:47;;;;;;;6.35;3.28;;;;;;;;;;5035970;28;20208;-47
2021/07/27 03:59:14;;;;;;;4.70;3.13;;;;;;;;;;5034712;28;20184;-47
2021/07/27 04:01:41;;;;;;;9.25;4.28;;;;;;;;;;5024323;28;20206;-46
2021/07/27 04:04:07;;;;;;;22.92;7.10;;;;;;;;;;5026844;28;20180;-46
2021/07/27 04:06:34;;;;;;;25.20;7.20;;;;;;;;;;5026736;28;20666;-46
2021/07/27 04:09:00;;;;;;;25.15;8.05;;;;;;;;;;5035300;28;20172;-47
2021/07/27 04:11:26;;;;;;;29.85;9.05;;;;;;;;;;5035295;28;20262;-47
2021/07/27 04:13:52;;;;;;;29.27;8.70;;;;;;;;;;5035576;28;20183;-47
2021/07/27 04:16:18;;;;;;;27.17;8.73;;;;;;;;;;5035682;28;20349;-46
2021/07/27 04:18:44;;;;;;;28.10;9.30;;;;;;;;;;5034073;28;20206;-47
2021/07/27 04:21:10;;;;;;;26.85;9.80;;;;;;;;;;5032770;28;20262;-47
2021/07/27 04:23:35;;;;;;;28.17;9.85;;;;;;;;;;5035439;28;20180;-47
2021/07/27 04:26:02;;;;;;;32.83;10.65;;;;;;;;;;5035016;28;20287;-46
2021/07/27 04:28:28;;;;;;;28.00;10.77;;;;;;;;;;5034655;28;20258;-47
2021/07/27 04:30:54;;;;;;;34.22;10.95;;;;;;;;;;5034837;28;20182;-47
2021/07/27 04:33:35;;;;;;;34.25;9.75;;;;;;;;;;5034092;28;20207;-47
2021/07/27 04:36:01;;;;;;;30.75;8.88;;;;;;;;;;5034800;28;20314;-47
2021/07/27 04:38:27;;;;;;;27.60;8.68;;;;;;;;;;5034520;28;20263;-46
2021/07/27 04:40:53;;;;;;;29.20;9.27;;;;;;;;;;5034886;28;20214;-46
2021/07/27 04:43:20;;;;;;;25.90;8.40;;;;;;;;;;5030556;28;20179;-47
2021/07/27 04:45:46;;;;;;;24.10;8.07;;;;;;;;;;5054028;28;20260;-47
2021/07/27 04:48:12;;;;;;;22.25;8.27;;;;;;;;;;5030854;28;20247;-47
2021/07/27 04:50:38;;;;;;;21.52;7.75;;;;;;;;;;5034525;28;20176;-47
2021/07/27 04:53:06;;;;;;;25.00;8.48;;;;;;;;;;5034550;28;20184;-47
2021/07/27 04:55:32;;;;;;;22.08;7.97;;;;;;;;;;5034879;28;20171;-47
2021/07/27 04:57:58;;;;;;;15.90;7.45;;;;;;;;;;5034488;28;20207;-46
2021/07/27 05:00:25;;;;;;;21.30;7.78;;;;;;;;;;5034780;28;20211;-46
2021/07/27 05:02:51;;;;;;;19.77;8.00;;;;;;;;;;5030009;28;20207;-46
2021/07/27 05:05:18;;;;;;;18.10;7.32;;;;;;;;;;5034576;28;20179;-46
2021/07/27 05:07:45;;;;;;;8.55;5.30;;;;;;;;;;5032374;28;20172;-46
2021/07/27 05:10:11;;;;;;;14.77;6.47;;;;;;;;;;5034516;28;20587;-47
2021/07/27 05:12:37;;;;;;;12.48;5.90;;;;;;;;;;5034616;28;20491;-46
2021/07/27 05:15:06;;;;;;;12.73;6.28;;;;;;;;;;5034563;28;20227;-47
2021/07/27 05:17:33;;;;;;;12.68;6.40;;;;;;;;;;5020042;28;20572;-46
2021/07/27 05:19:59;;;;;;;14.15;6.40;;;;;;;;;;5034477;28;20219;-46
2021/07/27 05:22:25;;;;;;;12.27;5.35;;;;;;;;;;5033855;28;20472;-48
2021/07/27 05:24:51;;;;;;;10.50;5.63;;;;;;;;;;5034460;28;20240;-47
2021/07/27 05:27:23;;;;;;;15.88;5.88;;;;;;;;;;5034206;28;20203;-47
2021/07/27 05:29:50;;;;;;;11.82;5.82;;;;;;;;;;5033532;28;20703;-47
2021/07/27 05:32:16;;;;;;;10.30;5.63;;;;;;;;;;5032936;28;20180;-47
2021/07/27 05:34:42;;;;;;;10.43;4.75;;;;;;;;;;5034194;28;20187;-47
2021/07/27 05:37:08;;;;;;;11.95;4.80;;;;;;;;;;5033440;28;20589;-46
2021/07/27 05:39:34;;;;;;;6.03;4.28;;;;;;;;;;5021040;28;20176;-46
2021/07/27 05:42:00;;;;;;;9.30;4.97;;;;;;;;;;5034317;28;20286;-46
2021/07/27 05:44:26;;;;;;;8.60;4.32;;;;;;;;;;5030999;28;20254;-47
2021/07/27 05:46:56;;;;;;;7.65;4.13;;;;;;;;;;5048721;28;20465;-46
2021/07/27 05:49:22;;;;;;;9.80;4.00;;;;;;;;;;5045537;28;20180;-47
2021/07/27 05:51:48;;;;;;;5.63;4.07;;;;;;;;;;5033591;28;20198;-47
2021/07/27 05:54:15;;;;;;;7.45;3.92;;;;;;;;;;5034313;28;20176;-47
2021/07/27 05:56:41;;;;;;;5.57;3.30;;;;;;;;;;5031292;28;20226;-46
2021/07/27 05:59:07;;;;;;;5.82;3.75;;;;;;;;;;5017217;28;20249;-47
2021/07/27 06:01:33;;;;;;;9.07;4.00;;;;;;;;;;5030285;28;20231;-47
2021/07/27 06:03:59;;;;;;;6.10;3.65;;;;;;;;;;5031326;28;20191;-47
2021/07/27 06:06:25;;;;;;;8.90;3.92;;;;;;;;;;5033721;28;20183;-47
2021/07/27 06:08:51;;;;;;;4.57;3.38;;;;;;;;;;5033401;28;20294;-47
2021/07/27 06:11:17;;;;;;;5.90;3.72;;;;;;;;;;5034130;28;20168;-46
2021/07/27 06:13:43;;;;;;;4.22;3.45;;;;;;;;;;5033333;28;20563;-47
2021/07/27 06:16:09;;;;;;;4.57;3.55;;;;;;;;;;5033973;28;20187;-47
2021/07/27 06:18:35;;;;;;;6.00;3.80;;;;;;;;;;5033181;28;20182;-46
2021/07/27 06:21:01;;;;;;;5.65;3.75;;;;;;;;;;5033285;28;20207;-47
2021/07/27 06:23:27;;;;;;;5.80;3.63;;;;;;;;;;5033824;28;20774;-47
2021/07/27 06:25:53;;;;;;;4.43;3.60;;;;;;;;;;5034233;28;20464;-47
2021/07/27 06:28:19;;;;;;;6.22;3.45;;;;;;;;;;5032842;28;20701;-46
2021/07/27 06:30:45;;;;;;;6.03;3.30;;;;;;;;;;5028316;28;20474;-46
2021/07/27 06:33:11;;;;;;;3.42;3.10;;;;;;;;;;5032266;28;20572;-47
2021/07/27 06:35:37;;;;;;;3.75;3.30;;;;;;;;;;5032342;28;20184;-46
2021/07/27 06:38:03;;;;;;;4.13;2.80;;;;;;;;;;5022186;28;20207;-46
2021/07/27 06:40:29;;;;;;;7.45;3.28;;;;;;;;;;5033901;28;20909;-47
2021/07/27 06:42:56;;;;;;;5.65;3.33;;;;;;;;;;5036141;28;20207;-47
2021/07/27 06:45:22;;;;;;;4.28;3.35;;;;;;;;;;5033367;28;20187;-47
2021/07/27 06:47:48;;;;;;;4.80;2.80;;;;;;;;;;5045282;28;20212;-46
2021/07/27 06:50:16;;;;;;;3.80;3.20;;;;;;;;;;5037311;28;20176;-47
2021/07/27 06:52:42;;;;;;;5.00;3.10;;;;;;;;;;5036394;28;20259;-46
2021/07/27 06:55:08;;;;;;;4.78;3.10;;;;;;;;;;5037093;28;20204;-47
2021/07/27 06:57:34;;;;;;;3.28;2.97;;;;;;;;;;5032764;28;20187;-47
2021/07/27 07:00:00;;;;;;;4.32;3.33;;;;;;;;;;5017354;28;20173;-47
2021/07/27 07:02:29;;;;;;;3.25;2.95;;;;;;;;;;5021729;28;20598;-47
2021/07/27 07:04:56;;;;;;;3.63;3.20;;;;;;;;;;5036979;28;20267;-46
2021/07/27 07:07:21;;;;;;;3.55;3.08;;;;;;;;;;5036137;28;20176;-47
2021/07/27 07:09:47;;;;;;;4.75;3.33;;;;;;;;;;5036658;28;20252;-47
2021/07/27 07:12:13;;;;;;;3.15;2.88;;;;;;;;;;5031657;28;20199;-46
2021/07/27 07:14:40;;;;;;;4.10;2.92;;;;;;;;;;5016936;28;20192;-46
2021/07/27 07:17:08;;;;;;;6.97;3.25;;;;;;;;;;5016396;28;20187;-46
2021/07/27 07:19:34;;;;;;;3.78;3.08;;;;;;;;;;5031015;28;20221;-47
2021/07/27 07:22:00;;;;;;;4.28;2.78;;;;;;;;;;5036378;28;20243;-47
2021/07/27 07:24:26;;;;;;;3.85;3.03;;;;;;;;;;5036532;28;20183;-47
2021/07/27 07:26:52;;;;;;;9.10;3.10;;;;;;;;;;5036084;28;20259;-46
2021/07/27 07:29:18;;;;;;;3.97;2.90;;;;;;;;;;5035934;28;20267;-47
2021/07/27 07:31:44;;;;;;;3.97;3.40;;;;;;;;;;5036501;28;20420;-46
2021/07/27 07:34:10;;;;;;;3.55;3.25;;;;;;;;;;5036261;28;20187;-46
2021/07/27 07:36:36;;;;;;;5.93;3.67;;;;;;;;;;5036099;28;20184;-46
2021/07/27 07:39:02;;;;;;;6.90;3.30;;;;;;;;;;5035725;28;20180;-46
2021/07/27 07:41:29;;;;;;;4.97;3.40;;;;;;;;;;5028822;28;20201;-46
2021/07/27 07:43:55;;;;;;;4.80;3.13;;;;;;;;;;5016170;28;20576;-47
2021/07/27 07:46:21;;;;;;;4.03;3.17;;;;;;;;;;5024526;28;20289;-47
2021/07/27 07:48:47;;;;;;;3.35;3.05;;;;;;;;;;5050218;28;20306;-47
2021/07/27 07:51:13;;;;;;;3.90;3.03;;;;;;;;;;5035864;28;20191;-46
2021/07/27 07:53:39;;;;;;;3.42;3.03;;;;;;;;;;5035289;28;20192;-46
2021/07/27 07:56:09;;;;;;;3.95;2.85;;;;;;;;;;5036004;28;20191;-47
2021/07/27 07:58:35;;;;;;;4.78;2.80;;;;;;;;;;5023478;28;20560;-46
2021/07/27 08:01:01;;;;;;;5.35;3.65;;;;;;;;;;5016053;28;20215;-47
2021/07/27 08:03:27;;;;;;;5.28;3.25;;;;;;;;;;5027042;28;20266;-47
2021/07/27 08:05:53;;;;;;;3.80;2.90;;;;;;;;;;5035569;28;20183;-47
2021/07/27 08:08:19;;;;;;;4.50;3.10;;;;;;;;;;5034996;28;20192;-47
2021/07/27 08:10:45;;;;;;;3.88;3.15;;;;;;;;;;5035611;28;20479;-46
2021/07/27 08:13:11;;;;;;;4.95;2.97;;;;;;;;;;5035421;28;20176;-47
2021/07/27 08:15:37;;;;;;;3.35;3.05;;;;;;;;;;5034850;28;20176;-47
2021/07/27 08:18:03;;;;;;;4.88;3.10;;;;;;;;;;5034997;28;20242;-46
2021/07/27 08:20:30;;;;;;;4.60;3.70;;;;;;;;;;5034425;28;20278;-46
2021/07/27 08:22:58;;;;;;;4.57;3.05;;;;;;;;;;5034468;28;20199;-47
2021/07/27 08:25:24;;;;;;;3.17;2.88;;;;;;;;;;5035324;28;20192;-47
2021/07/27 08:27:51;;;;;;;3.22;2.92;;;;;;;;;;5031208;28;20175;-47
2021/07/27 08:30:18;;;;;;;4.18;3.08;;;;;;;;;;5034641;28;20573;-47
2021/07/27 08:32:45;;;;;;;4.10;3.42;;;;;;;;;;5024882;28;20218;-47
2021/07/27 08:35:12;;;;;;;3.33;3.03;;;;;;;;;;5035086;28;20247;-47
2021/07/27 08:37:38;;;;;;;6.53;3.03;;;;;;;;;;5037399;28;20187;-46
2021/07/27 08:40:04;;;;;;;5.90;3.17;;;;;;;;;;5035205;28;20242;-46
2021/07/27 08:42:31;;;;;;;3.50;3.20;;;;;;;;;;5034956;28;20203;-47
2021/07/27 08:45:01;;;;;;;4.38;3.25;;;;;;;;;;5034048;28;20199;-46
2021/07/27 08:47:27;;;;;;;4.60;3.35;;;;;;;;;;5030718;28;20222;-47
2021/07/27 08:49:55;;;;;;;3.72;3.38;;;;;;;;;;5025865;28;20246;-47
2021/07/27 08:52:21;;;;;;;3.85;2.78;;;;;;;;;;5029376;28;20188;-46
2021/07/27 08:54:48;;;;;;;3.53;2.95;;;;;;;;;;5026150;28;20184;-47
2021/07/27 08:57:15;;;;;;;5.03;3.22;;;;;;;;;;5031853;28;20218;-47
2021/07/27 08:59:41;;;;;;;4.40;3.42;;;;;;;;;;5034265;28;20495;-47
2021/07/27 09:02:08;;;;;;;3.22;2.92;;;;;;;;;;5025458;28;20208;-46
2021/07/27 09:04:34;;;;;;;3.42;2.92;;;;;;;;;;5032558;28;20473;-47
2021/07/27 09:07:00;;;;;;;3.28;2.83;;;;;;;;;;5033736;28;20167;-47
2021/07/27 09:09:30;;;;;;;3.33;3.03;;;;;;;;;;5025283;28;20171;-47
2021/07/27 09:11:57;;;;;;;3.60;3.15;;;;;;;;;;5034347;28;20167;-47
2021/07/27 09:14:23;;;;;;;3.45;3.03;;;;;;;;;;5054622;28;20229;-47
2021/07/27 09:16:53;;;;;;;3.60;2.90;;;;;;;;;;5035106;28;20198;-47
2021/07/27 09:19:19;;;;;;;4.43;3.03;;;;;;;;;;5034245;28;20179;-47
2021/07/27 09:21:46;;;;;;;4.20;3.10;;;;;;;;;;5031770;28;20221;-47
2021/07/27 09:24:32;;;;;;;4.53;3.28;;;;;;;;;;5034404;28;20311;-46
2021/07/27 09:26:59;;;;;;;3.25;2.95;;;;;;;;;;5014465;28;20219;-47
2021/07/27 09:29:27;;;;;;;5.03;3.20;;;;;;;;;;5014665;28;20168;-46
2021/07/27 09:31:54;;;;;;;3.83;2.88;;;;;;;;;;5034199;28;20179;-47
2021/07/27 09:34:20;;;;;;;3.60;3.10;;;;;;;;;;5033987;28;20203;-46
2021/07/27 09:36:46;;;;;;;3.45;2.72;;;;;;;;;;5033733;28;20188;-47
2021/07/27 09:39:12;;;;;;;4.05;3.08;;;;;;;;;;5032353;28;20195;-47
2021/07/27 09:41:38;;;;;;;3.42;2.70;;;;;;;;;;5025621;28;20200;-46
2021/07/27 09:44:07;;;;;;;3.40;3.10;;;;;;;;;;5014690;28;20176;-46
2021/07/27 09:46:33;;;;;;;4.13;3.05;;;;;;;;;;5014591;28;20181;-46
2021/07/27 09:49:00;;;;;;;5.30;3.10;;;;;;;;;;5019363;28;20444;-47
2021/07/27 09:51:30;;;;;;;4.13;2.88;;;;;;;;;;5033126;28;20211;-46
2021/07/27 09:53:56;;;;;;;3.38;3.08;;;;;;;;;;5034102;28;20180;-47
2021/07/27 09:56:22;;;;;;;5.00;2.72;;;;;;;;;;5033665;28;20198;-47
2021/07/27 09:58:48;;;;;;;3.88;2.67;;;;;;;;;;5047679;28;20570;-46
2021/07/27 10:01:19;;;;;;;2.88;2.67;;;;;;;;;;5046671;28;20282;-47
2021/07/27 10:03:55;;;;;;;4.15;3.22;;;;;;;;;;5026658;28;20177;-47
2021/07/27 10:06:25;;;;;;;3.67;3.30;;;;;;;;;;5022532;28;20178;-47
2021/07/27 10:08:55;;;;;;;3.67;3.03;;;;;;;;;;5033134;28;20172;-46
2021/07/27 10:11:33;;;;;;;3.17;2.88;;;;;;;;;;5034186;28;20168;-46
2021/07/27 10:14:04;;;;;;;3.50;3.15;;;;;;;;;;5031556;28;20445;-47
2021/07/27 10:16:30;;;;;;;3.90;2.97;;;;;;;;;;5015734;28;20602;-47
2021/07/27 10:18:56;;;;;;;3.92;3.33;;;;;;;;;;5024865;28;20187;-46
2021/07/27 10:21:24;;;;;;;3.38;3.08;;;;;;;;;;5037790;28;20578;-47
2021/07/27 10:24:00;;;;;;;5.15;3.60;;;;;;;;;;5037529;28;20203;-47
2021/07/27 10:26:27;;;;;;;3.38;3.08;;;;;;;;;;5037422;28;20184;-47
2021/07/27 10:28:53;;;;;;;4.68;3.10;;;;;;;;;;5037425;28;20195;-47
2021/07/27 10:31:30;;;;;;;6.10;3.15;;;;;;;;;;5035888;28;20194;-47
2021/07/27 10:33:56;;;;;;;3.30;3.00;;;;;;;;;;5037578;28;20199;-46
2021/07/27 10:36:31;;;;;;;5.35;3.00;;;;;;;;;;5030736;28;20195;-47
2021/07/27 10:39:05;;;;;;;4.07;3.47;;;;;;;;;;5036896;28;20183;-47
2021/07/27 10:41:34;;;;;;;3.53;3.17;;;;;;;;;;5026630;28;20653;-46
2021/07/27 10:44:04;;;;;;;5.10;3.17;;;;;;;;;;5037164;28;20551;-47
2021/07/27 10:46:30;;;;;;;4.25;3.55;;;;;;;;;;5033761;28;20228;-47
2021/07/27 10:48:57;;;;;;;3.45;3.10;;;;;;;;;;5018853;28;20169;-47
2021/07/27 10:51:24;;;;;;;3.65;2.78;;;;;;;;;;5036857;28;20258;-47
2021/07/27 10:53:52;;;;;;;3.50;3.20;;;;;;;;;;5037168;28;20187;-47
2021/07/27 10:56:20;;;;;;;3.47;3.17;;;;;;;;;;5037002;28;20547;-46
2021/07/27 10:58:46;;;;;;;3.17;2.88;;;;;;;;;;5036604;28;20259;-47
2021/07/27 11:01:12;;;;;;;4.32;3.22;;;;;;;;;;5035536;28;20290;-46
2021/07/27 11:03:40;;;;;;;3.53;3.22;;;;;;;;;;5031216;28;20177;-47
2021/07/27 11:06:06;;;;;;;3.53;3.22;;;;;;;;;;5026100;28;20179;-47
2021/07/27 11:08:33;;;;;;;3.47;3.17;;;;;;;;;;5033757;28;20238;-47
2021/07/27 11:11:13;;;;;;;3.88;3.17;;;;;;;;;;5036918;28;20171;-46
2021/07/27 11:13:39;;;;;;;3.25;2.95;;;;;;;;;;5036394;28;21739;-47
2021/07/27 11:16:05;;;;;;;3.58;3.28;;;;;;;;;;5036970;28;20176;-47
2021/07/27 11:18:32;;;;;;;7.68;3.45;;;;;;;;;;5035303;28;20172;-46
2021/07/27 11:20:59;;;;;;;5.22;3.60;;;;;;;;;;5036342;28;20171;-47
2021/07/27 11:23:26;;;;;;;6.63;3.50;;;;;;;;;;5035292;28;20180;-47
2021/07/27 11:25:53;;;;;;;5.25;3.40;;;;;;;;;;5036477;28;20171;-47
2021/07/27 11:28:19;;;;;;;4.55;3.47;;;;;;;;;;5035356;28;20172;-46
2021/07/27 11:30:46;;;;;;;8.27;3.50;;;;;;;;;;5036631;28;20190;-47
2021/07/27 11:33:13;;;;;;;3.40;3.10;;;;;;;;;;5035715;28;20442;-46
2021/07/27 11:35:43;;;;;;;8.52;3.10;;;;;;;;;;5034326;28;20180;-47
2021/07/27 11:38:09;;;;;;;4.43;3.35;;;;;;;;;;5031372;28;20198;-47
2021/07/27 11:40:35;;;;;;;4.32;2.90;;;;;;;;;;5035867;28;20563;-47
2021/07/27 11:43:05;;;;;;;5.68;3.53;;;;;;;;;;5025423;28;20203;-47
2021/07/27 11:45:35;;;;;;;3.72;3.40;;;;;;;;;;5035960;28;20513;-47
2021/07/27 11:48:01;;;;;;;3.45;3.00;;;;;;;;;;5034183;28;20184;-46
2021/07/27 11:50:32;;;;;;;4.50;3.38;;;;;;;;;;5036012;28;20207;-46
2021/07/27 11:52:59;;;;;;;3.53;3.10;;;;;;;;;;5019558;28;20278;-47
2021/07/27 11:55:31;;;;;;;4.90;3.13;;;;;;;;;;5027190;28;20175;-47
2021/07/27 11:57:58;;;;;;;5.97;3.38;;;;;;;;;;5035582;28;20203;-47
2021/07/27 12:00:24;;;;;;;3.53;3.10;;;;;;;;;;5035870;28;20570;-47
2021/07/27 12:02:50;;;;;;;7.05;3.45;;;;;;;;;;5035343;28;20203;-46
2021/07/27 12:05:16;;;;;;;4.15;2.97;;;;;;;;;;5032969;28;20198;-47
2021/07/27 12:07:42;;;;;;;3.42;3.10;;;;;;;;;;5034988;28;20180;-47
2021/07/27 12:10:09;;;;;;;4.88;3.30;;;;;;;;;;5023237;28;20238;-47
2021/07/27 12:12:35;;;;;;;4.18;3.20;;;;;;;;;;5023109;28;20190;-47
2021/07/27 12:15:01;;;;;;;5.63;3.40;;;;;;;;;;5035232;28;20234;-47
2021/07/27 12:17:27;;;;;;;3.47;3.17;;;;;;;;;;5035433;28;20176;-47
2021/07/27 12:19:53;;;;;;;4.22;3.17;;;;;;;;;;5035895;28;20214;-47
2021/07/27 12:22:19;;;;;;;3.58;2.60;;;;;;;;;;5034487;28;20514;-47
2021/07/27 12:24:45;;;;;;;3.28;2.97;;;;;;;;;;5027103;28;20211;-47
2021/07/27 12:27:12;;;;;;;4.97;3.10;;;;;;;;;;5030850;28;20305;-46
2021/07/27 12:29:39;;;;;;;3.58;3.28;;;;;;;;;;5035123;28;20558;-47
2021/07/27 12:32:05;;;;;;;3.78;2.70;;;;;;;;;;5033742;28;20605;-47
2021/07/27 12:34:31;;;;;;;3.78;3.28;;;;;;;;;;5035643;28;20172;-47
2021/07/27 12:36:57;;;;;;;5.10;2.78;;;;;;;;;;5029718;28;20570;-47
2021/07/27 12:39:23;;;;;;;3.78;3.40;;;;;;;;;;5030485;28;20273;-47
2021/07/27 12:41:50;;;;;;;4.85;3.40;;;;;;;;;;5034815;28;20207;-47
2021/07/27 12:44:16;;;;;;;3.40;3.10;;;;;;;;;;5034001;28;20184;-47
2021/07/27 12:46:43;;;;;;;3.42;3.13;;;;;;;;;;5034820;28;20200;-47
2021/07/27 12:49:13;;;;;;;3.90;3.10;;;;;;;;;;5034222;28;20207;-46
2021/07/27 12:51:39;;;;;;;5.22;3.35;;;;;;;;;;5035007;28;20594;-47
2021/07/27 12:54:05;;;;;;;4.25;2.97;;;;;;;;;;5034824;28;20690;-47
2021/07/27 12:56:31;;;;;;;4.05;3.50;;;;;;;;;;5034439;28;20191;-46
2021/07/27 12:59:00;;;;;;;6.35;3.65;;;;;;;;;;5033132;28;20190;-47
2021/07/27 13:01:26;;;;;;;4.22;3.35;;;;;;;;;;5033219;28;20265;-47
2021/07/27 13:03:52;;;;;;;4.03;3.35;;;;;;;;;;5034879;28;20539;-47
2021/07/27 13:06:18;;;;;;;5.10;3.20;;;;;;;;;;5031153;28;20180;-46
2021/07/27 13:08:44;;;;;;;3.47;3.17;;;;;;;;;;5016057;28;20177;-47
2021/07/27 13:11:11;;;;;;;4.70;3.10;;;;;;;;;;5031733;28;20229;-47
2021/07/27 13:13:37;;;;;;;3.72;3.13;;;;;;;;;;5034717;28;20234;-47
2021/07/27 13:16:04;;;;;;;4.50;3.00;;;;;;;;;;5033840;28;20218;-47
2021/07/27 13:18:30;;;;;;;5.13;3.10;;;;;;;;;;5030334;28;20228;-47
2021/07/27 13:20:56;;;;;;;5.85;3.05;;;;;;;;;;5033834;28;20187;-47
2021/07/27 13:23:21;;;;;;;4.70;3.25;;;;;;;;;;5029726;28;20461;-47
2021/07/27 13:25:47;;;;;;;5.05;3.78;;;;;;;;;;5032802;28;20171;-47
2021/07/27 13:28:13;;;;;;;3.90;3.50;;;;;;;;;;5033995;28;20482;-47
2021/07/27 13:30:40;;;;;;;4.40;3.47;;;;;;;;;;5034375;28;20192;-46
2021/07/27 13:33:06;;;;;;;3.60;3.30;;;;;;;;;;5032547;28;20176;-47
2021/07/27 13:35:32;;;;;;;4.43;3.20;;;;;;;;;;5032665;28;20194;-47
2021/07/27 13:37:58;;;;;;;3.88;3.28;;;;;;;;;;5026628;28;20183;-47
2021/07/27 13:40:25;;;;;;;3.90;2.80;;;;;;;;;;5041661;28;20244;-47
2021/07/27 13:42:51;;;;;;;3.60;3.30;;;;;;;;;;5032478;28;20599;-47
2021/07/27 13:45:17;;;;;;;3.70;3.40;;;;;;;;;;5025238;28;20232;-47
2021/07/27 13:47:42;;;;;;;4.65;3.40;;;;;;;;;;5031648;28;20198;-47
2021/07/27 13:50:09;;;;;;;3.40;3.10;;;;;;;;;;5030561;28;20458;-47
2021/07/27 13:52:35;;;;;;;23.17;13.30;;;;;;;;;;5037013;28;20183;-47
2021/07/27 13:55:01;;;;;;;70.40;37.13;;;;;;;;;;5032335;28;20211;-47
2021/07/27 13:57:27;;;;;;;51.60;29.08;;;;;;;;;;5019943;28;20191;-47
2021/07/27 13:59:53;;;;;;;33.38;19.70;;;;;;;;;;5037769;28;20231;-47
2021/07/27 14:02:19;;;;;;;19.17;11.77;;;;;;;;;;5038050;28;20218;-47
2021/07/27 14:04:45;;;;;;;11.27;7.45;;;;;;;;;;5038099;28;20168;-47
2021/07/27 14:07:12;;;;;;;8.15;5.20;;;;;;;;;;5033475;28;20184;-47
2021/07/27 14:09:38;;;;;;;4.40;4.00;;;;;;;;;;5036964;28;20263;-47
2021/07/27 14:12:04;;;;;;;4.63;3.60;;;;;;;;;;5038160;28;20175;-47
2021/07/27 14:14:30;;;;;;;6.13;3.95;;;;;;;;;;5038303;28;20219;-47
2021/07/27 14:16:56;;;;;;;4.85;3.67;;;;;;;;;;5037568;28;20221;-47
2021/07/27 14:19:22;;;;;;;5.88;3.60;;;;;;;;;;5038061;28;20244;-47
2021/07/27 14:21:49;;;;;;;4.65;3.60;;;;;;;;;;5037446;28;20686;-47
2021/07/27 14:24:16;;;;;;;4.82;3.90;;;;;;;;;;5033927;28;20281;-47
2021/07/27 14:26:42;;;;;;;11.65;3.80;;;;;;;;;;5020790;28;20181;-47
2021/07/27 14:29:08;;;;;;;3.90;3.50;;;;;;;;;;5037119;28;20176;-47
2021/07/27 14:31:34;;;;;;;4.13;3.38;;;;;;;;;;5037790;28;20621;-47
2021/07/27 14:34:00;;;;;;;4.28;3.67;;;;;;;;;;5033803;28;20453;-47
2021/07/27 14:36:26;;;;;;;4.88;4.03;;;;;;;;;;5037256;28;20288;-47
2021/07/27 14:38:55;;;;;;;4.82;3.38;;;;;;;;;;5033990;28;20523;-47
2021/07/27 14:41:21;;;;;;;4.82;3.38;;;;;;;;;;5034011;28;20364;-47
2021/07/27 14:43:47;;;;;;;5.65;4.13;;;;;;;;;;5037813;28;20587;-47
2021/07/27 14:46:13;;;;;;;7.05;3.72;;;;;;;;;;5036506;28;20196;-47
2021/07/27 14:48:43;;;;;;;5.88;3.63;;;;;;;;;;5037195;28;20214;-47
2021/07/27 14:51:09;;;;;;;7.35;4.50;;;;;;;;;;5036959;28;20392;-47
2021/07/27 14:53:35;;;;;;;5.18;4.38;;;;;;;;;;5037009;28;20250;-47
2021/07/27 14:56:01;;;;;;;4.97;4.25;;;;;;;;;;5030256;28;20180;-47
2021/07/27 14:58:28;;;;;;;7.25;4.50;;;;;;;;;;5026040;28;20200;-47
2021/07/27 15:00:54;;;;;;;5.55;4.05;;;;;;;;;;5031378;28;20183;-47
2021/07/27 15:03:20;;;;;;;5.65;4.70;;;;;;;;;;5033003;28;20188;-47